Austin Tobin — WDG2935 — position and weather

sailwx.info

Track history (hours):
 
Tides and Currents Weather Stations Pressure Air Temp Water Temp Dewpoint Dewpoint Depression Visibility Wind Speed Wind Dir Waves Ship Positions

Austin Tobin

Owner: PORT IMPERIAL FERRY, WEEHAWKEN, NJ. More information available from US FCC via Universal Licensing System and Coast Guard Vessel Documentation Center.

Last reported at 2018-Jul-19 14:00 UTC. Time now 2018-Jul-19 19:31 UTC.
Position N 40°41' W 074°04'.

Length 21 m; draft 2 m.

Type: Passenger vessel. MMSI: 366834150.

Date/timePositionNaut miles runAvg speedWind from/ knotsBaromVisibWave heightAir tempDewpointWater temp
2018-Jul-19 14:00N 40°41' W 074°04'0 0.0
2018-Jul-19 13:30N 40°41' W 074°05'0 0.7
2018-Jul-19 13:00N 40°41' W 074°04'2 4.1
2018-Jul-19 12:31N 40°41' W 074°02'1 1.7
2018-Jul-19 12:01N 40°42' W 074°01'1 2.5
2018-Jul-19 11:30N 40°41' W 074°02'1 2.4
2018-Jul-19 11:01N 40°41' W 074°03'1 2.2
2018-Jul-19 10:30N 40°41' W 074°04'0 0.1
2018-Jul-19 10:00N 40°41' W 074°05'0 0.0
2018-Jul-18 23:38N 40°41' W 074°04'322.7
2018-Jul-18 23:30N 40°42' W 074°01'2 4.0
2018-Jul-18 23:00N 40°41' W 074°03'1 2.5
2018-Jul-18 22:31N 40°41' W 074°04'0 0.4
2018-Jul-18 22:00N 40°41' W 074°05'1 1.4
2018-Jul-18 21:30N 40°41' W 074°04'1 2.1
2018-Jul-18 21:00N 40°41' W 074°02'2 3.6
2018-Jul-18 20:30N 40°42' W 074°01'0 0.0
2018-Jul-18 20:00N 40°42' W 074°01'3 6.0
2018-Jul-18 19:30N 40°41' W 074°04'0 0.0
2018-Jul-18 19:00N 40°41' W 074°04'0 0.0
2018-Jul-18 15:01N 40°41' W 074°04'6 9.8
2018-Jul-18 14:25N 40°46' W 074°01'6 6.4
2018-Jul-18 13:30N 40°41' W 074°05'0 0.8
2018-Jul-18 13:00N 40°41' W 074°04'2 3.8
2018-Jul-18 12:31N 40°41' W 074°02'1 2.0
2018-Jul-18 12:01N 40°42' W 074°01'1 2.0
2018-Jul-18 11:31N 40°41' W 074°02'2 2.0
2018-Jul-18 10:30N 40°41' W 074°04'0 0.3
2018-Jul-18 10:00N 40°41' W 074°05'0 0.0
2018-Jul-17 23:40N 40°41' W 074°04'318.8
2018-Jul-17 23:30N 40°42' W 074°01'2 4.0
2018-Jul-17 23:01N 40°41' W 074°03'1 2.2
2018-Jul-17 22:31N 40°41' W 074°04'0 0.9
2018-Jul-17 22:00N 40°41' W 074°05'1 1.7
2018-Jul-17 21:30N 40°41' W 074°04'1 2.2
2018-Jul-17 21:01N 40°41' W 074°02'2 3.3
2018-Jul-17 20:30N 40°42' W 074°01'0 0.1
2018-Jul-17 20:00N 40°42' W 074°01'3 5.9
2018-Jul-17 19:30N 40°41' W 074°04'0 0.0
2018-Jul-17 13:57N 40°41' W 074°04'0 0.1
2018-Jul-17 13:30N 40°41' W 074°05'1 1.7
2018-Jul-17 13:00N 40°41' W 074°04'2 4.0
2018-Jul-17 12:30N 40°42' W 074°01'1 1.3
2018-Jul-17 12:01N 40°42' W 074°01'1 2.4
2018-Jul-17 11:30N 40°41' W 074°02'1 2.9
2018-Jul-17 11:00N 40°41' W 074°04'1 1.9
2018-Jul-17 10:31N 40°41' W 074°05'0 0.0
2018-Jul-17 10:00N 40°41' W 074°05'3 0.3
2018-Jul-16 23:31N 40°42' W 074°01'2 3.3
2018-Jul-16 23:01N 40°41' W 074°02'2 3.0
2018-Jul-16 22:31N 40°41' W 074°04'0 0.5
2018-Jul-16 22:00N 40°41' W 074°05'0 0.7
2018-Jul-16 21:30N 40°41' W 074°04'2 3.1
2018-Jul-16 21:00N 40°41' W 074°02'1 2.7
2018-Jul-16 20:30N 40°42' W 074°01'0 0.2
2018-Jul-16 20:00N 40°42' W 074°01'3 5.9
2018-Jul-16 19:30N 40°41' W 074°04'0 0.0
2018-Jul-16 14:46N 40°41' W 074°04'312.4
2018-Jul-16 14:31N 40°43' W 074°01'3 5.4
2018-Jul-16 13:57N 40°46' W 074°01'613.0
2018-Jul-16 13:30N 40°41' W 074°05'0 0.8
2018-Jul-16 13:00N 40°41' W 074°04'2 3.2
2018-Jul-16 12:31N 40°41' W 074°02'2 3.4
2018-Jul-16 12:01N 40°42' W 074°01'1 1.8
2018-Jul-16 11:31N 40°42' W 074°02'2 3.8
2018-Jul-16 11:00N 40°41' W 074°04'1 1.0
2018-Jul-16 10:30N 40°41' W 074°04'0 0.2
2018-Jul-16 09:59N 40°41' W 074°05'  
2018-Jul-13 23:45N 40°41' W 074°04'311.9
2018-Jul-13 23:30N 40°42' W 074°01'2 3.8
2018-Jul-13 23:00N 40°41' W 074°03'1 2.5
2018-Jul-13 22:31N 40°41' W 074°04'0 0.5
2018-Jul-13 22:00N 40°41' W 074°05'1 1.0
2018-Jul-13 21:30N 40°41' W 074°04'2 3.1
2018-Jul-13 21:01N 40°41' W 074°02'1 2.5
2018-Jul-13 20:30N 40°42' W 074°01'0 0.1
2018-Jul-13 20:01N 40°42' W 074°01'3 5.9
2018-Jul-13 19:30N 40°41' W 074°04'0 0.0
2018-Jul-13 15:30N 40°41' W 074°04'611.8
2018-Jul-13 15:00N 40°46' W 074°01'0 0.0
2018-Jul-13 14:00N 40°46' W 074°01'611.4
2018-Jul-13 13:30N 40°41' W 074°05'0 0.8
2018-Jul-13 13:01N 40°41' W 074°04'2 3.6
2018-Jul-13 12:31N 40°41' W 074°02'1 1.8
2018-Jul-13 12:01N 40°42' W 074°01'1 1.6
2018-Jul-13 11:31N 40°42' W 074°02'2 3.8
2018-Jul-13 11:01N 40°41' W 074°04'0 0.8
2018-Jul-13 10:30N 40°41' W 074°05'0 0.1
2018-Jul-13 10:00N 40°41' W 074°04'0 0.0
2018-Jul-12 23:39N 40°41' W 074°04'319.6
2018-Jul-12 23:30N 40°42' W 074°01'2 3.9
2018-Jul-12 23:00N 40°41' W 074°03'1 2.5
2018-Jul-12 22:30N 40°41' W 074°04'0 0.6
2018-Jul-12 22:00N 40°41' W 074°05'1 2.0
2018-Jul-12 21:31N 40°41' W 074°04'1 2.7
2018-Jul-12 21:00N 40°41' W 074°02'1 2.5
2018-Jul-12 20:30N 40°42' W 074°01'0 0.0
2018-Jul-12 20:00N 40°42' W 074°01'3 0.5
2018-Jul-12 14:02N 40°41' W 074°04'0 2.5
2018-Jul-12 14:00N 40°41' W 074°04'0 0.2
2018-Jul-12 13:30N 40°41' W 074°05'1 1.4
2018-Jul-12 13:01N 40°41' W 074°04'2 4.2
2018-Jul-12 12:31N 40°42' W 074°01'1 1.3
2018-Jul-12 12:00N 40°42' W 074°01'1 2.6
2018-Jul-12 11:31N 40°41' W 074°02'1 2.9
2018-Jul-12 11:00N 40°41' W 074°04'1 1.2
2018-Jul-12 10:30N 40°41' W 074°04'0 0.4
2018-Jul-12 10:00N 40°41' W 074°04'1 0.1
2018-Jul-11 23:38N 40°41' W 074°04'321.2
2018-Jul-11 23:30N 40°42' W 074°01'2 3.3
2018-Jul-11 23:01N 40°41' W 074°02'2 3.4
2018-Jul-11 22:30N 40°41' W 074°04'0 0.7
2018-Jul-11 22:00N 40°41' W 074°05'1 1.8
2018-Jul-11 21:30N 40°41' W 074°04'1 2.6
2018-Jul-11 21:01N 40°41' W 074°02'1 2.3
2018-Jul-11 20:30N 40°42' W 074°01'0 0.4
2018-Jul-11 20:00N 40°42' W 074°01'3 5.8
2018-Jul-11 19:30N 40°41' W 074°04'0 0.0
2018-Jul-11 15:37N 40°41' W 074°04'1 9.9
2018-Jul-11 15:30N 40°41' W 074°03'6 4.2
2018-Jul-11 14:04N 40°46' W 074°01'1 7.4
2018-Jul-11 13:58N 40°46' W 074°00'0 0.1
2018-Jul-11 13:30N 40°46' W 074°00'3 6.4
2018-Jul-11 13:00N 40°43' W 074°02'  
Track history (hours):
 
Tides and Currents Weather Stations Pressure Air Temp Water Temp Dewpoint Dewpoint Depression Visibility Wind Speed Wind Dir Waves Ship Positions

Austin Tobin

Owner: PORT IMPERIAL FERRY, WEEHAWKEN, NJ. More information available from US FCC via Universal Licensing System and Coast Guard Vessel Documentation Center.

Last reported at 2018-Jul-19 14:00 UTC. Time now 2018-Jul-19 19:31 UTC.
Position N 40°41' W 074°04'.

Length 21 m; draft 2 m.

Type: Passenger vessel. MMSI: 366834150.

Date/timePositionNaut miles runAvg speedWind from/ knotsBaromVisibWave heightAir tempDewpointWater temp
2018-Jul-19 14:00N 40°41' W 074°04'0 0.0
2018-Jul-19 13:30N 40°41' W 074°05'0 0.7
2018-Jul-19 13:00N 40°41' W 074°04'2 4.1
2018-Jul-19 12:31N 40°41' W 074°02'1 1.7
2018-Jul-19 12:01N 40°42' W 074°01'1 2.5
2018-Jul-19 11:30N 40°41' W 074°02'1 2.4
2018-Jul-19 11:01N 40°41' W 074°03'1 2.2
2018-Jul-19 10:30N 40°41' W 074°04'0 0.1
2018-Jul-19 10:00N 40°41' W 074°05'0 0.0
2018-Jul-18 23:38N 40°41' W 074°04'322.7
2018-Jul-18 23:30N 40°42' W 074°01'2 4.0
2018-Jul-18 23:00N 40°41' W 074°03'1 2.5
2018-Jul-18 22:31N 40°41' W 074°04'0 0.4
2018-Jul-18 22:00N 40°41' W 074°05'1 1.4
2018-Jul-18 21:30N 40°41' W 074°04'1 2.1
2018-Jul-18 21:00N 40°41' W 074°02'2 3.6
2018-Jul-18 20:30N 40°42' W 074°01'0 0.0
2018-Jul-18 20:00N 40°42' W 074°01'3 6.0
2018-Jul-18 19:30N 40°41' W 074°04'0 0.0
2018-Jul-18 19:00N 40°41' W 074°04'0 0.0
2018-Jul-18 15:01N 40°41' W 074°04'6 9.8
2018-Jul-18 14:25N 40°46' W 074°01'6 6.4
2018-Jul-18 13:30N 40°41' W 074°05'0 0.8
2018-Jul-18 13:00N 40°41' W 074°04'2 3.8
2018-Jul-18 12:31N 40°41' W 074°02'1 2.0
2018-Jul-18 12:01N 40°42' W 074°01'1 2.0
2018-Jul-18 11:31N 40°41' W 074°02'2 2.0
2018-Jul-18 10:30N 40°41' W 074°04'0 0.3
2018-Jul-18 10:00N 40°41' W 074°05'0 0.0
2018-Jul-17 23:40N 40°41' W 074°04'318.8
2018-Jul-17 23:30N 40°42' W 074°01'2 4.0
2018-Jul-17 23:01N 40°41' W 074°03'1 2.2
2018-Jul-17 22:31N 40°41' W 074°04'0 0.9
2018-Jul-17 22:00N 40°41' W 074°05'1 1.7
2018-Jul-17 21:30N 40°41' W 074°04'1 2.2
2018-Jul-17 21:01N 40°41' W 074°02'2 3.3
2018-Jul-17 20:30N 40°42' W 074°01'0 0.1
2018-Jul-17 20:00N 40°42' W 074°01'3 5.9
2018-Jul-17 19:30N 40°41' W 074°04'0 0.0
2018-Jul-17 13:57N 40°41' W 074°04'0 0.1
2018-Jul-17 13:30N 40°41' W 074°05'1 1.7
2018-Jul-17 13:00N 40°41' W 074°04'2 4.0
2018-Jul-17 12:30N 40°42' W 074°01'1 1.3
2018-Jul-17 12:01N 40°42' W 074°01'1 2.4
2018-Jul-17 11:30N 40°41' W 074°02'1 2.9
2018-Jul-17 11:00N 40°41' W 074°04'1 1.9
2018-Jul-17 10:31N 40°41' W 074°05'0 0.0
2018-Jul-17 10:00N 40°41' W 074°05'3 0.3
2018-Jul-16 23:31N 40°42' W 074°01'2 3.3
2018-Jul-16 23:01N 40°41' W 074°02'2 3.0
2018-Jul-16 22:31N 40°41' W 074°04'0 0.5
2018-Jul-16 22:00N 40°41' W 074°05'0 0.7
2018-Jul-16 21:30N 40°41' W 074°04'2 3.1
2018-Jul-16 21:00N 40°41' W 074°02'1 2.7
2018-Jul-16 20:30N 40°42' W 074°01'0 0.2
2018-Jul-16 20:00N 40°42' W 074°01'3 5.9
2018-Jul-16 19:30N 40°41' W 074°04'0 0.0
2018-Jul-16 14:46N 40°41' W 074°04'312.4
2018-Jul-16 14:31N 40°43' W 074°01'3 5.4
2018-Jul-16 13:57N 40°46' W 074°01'613.0
2018-Jul-16 13:30N 40°41' W 074°05'0 0.8
2018-Jul-16 13:00N 40°41' W 074°04'2 3.2
2018-Jul-16 12:31N 40°41' W 074°02'2 3.4
2018-Jul-16 12:01N 40°42' W 074°01'1 1.8
2018-Jul-16 11:31N 40°42' W 074°02'2 3.8
2018-Jul-16 11:00N 40°41' W 074°04'1 1.0
2018-Jul-16 10:30N 40°41' W 074°04'0 0.2
2018-Jul-16 09:59N 40°41' W 074°05'  
2018-Jul-13 23:45N 40°41' W 074°04'311.9
2018-Jul-13 23:30N 40°42' W 074°01'2 3.8
2018-Jul-13 23:00N 40°41' W 074°03'1 2.5
2018-Jul-13 22:31N 40°41' W 074°04'0 0.5
2018-Jul-13 22:00N 40°41' W 074°05'1 1.0
2018-Jul-13 21:30N 40°41' W 074°04'2 3.1
2018-Jul-13 21:01N 40°41' W 074°02'1 2.5
2018-Jul-13 20:30N 40°42' W 074°01'0 0.1
2018-Jul-13 20:01N 40°42' W 074°01'3 5.9
2018-Jul-13 19:30N 40°41' W 074°04'0 0.0
2018-Jul-13 15:30N 40°41' W 074°04'611.8
2018-Jul-13 15:00N 40°46' W 074°01'0 0.0
2018-Jul-13 14:00N 40°46' W 074°01'611.4
2018-Jul-13 13:30N 40°41' W 074°05'0 0.8
2018-Jul-13 13:01N 40°41' W 074°04'2 3.6
2018-Jul-13 12:31N 40°41' W 074°02'1 1.8
2018-Jul-13 12:01N 40°42' W 074°01'1 1.6
2018-Jul-13 11:31N 40°42' W 074°02'2 3.8
2018-Jul-13 11:01N 40°41' W 074°04'0 0.8
2018-Jul-13 10:30N 40°41' W 074°05'0 0.1
2018-Jul-13 10:00N 40°41' W 074°04'0 0.0
2018-Jul-12 23:39N 40°41' W 074°04'319.6
2018-Jul-12 23:30N 40°42' W 074°01'2 3.9
2018-Jul-12 23:00N 40°41' W 074°03'1 2.5
2018-Jul-12 22:30N 40°41' W 074°04'0 0.6
2018-Jul-12 22:00N 40°41' W 074°05'1 2.0
2018-Jul-12 21:31N 40°41' W 074°04'1 2.7
2018-Jul-12 21:00N 40°41' W 074°02'1 2.5
2018-Jul-12 20:30N 40°42' W 074°01'0 0.0
2018-Jul-12 20:00N 40°42' W 074°01'3 0.5
2018-Jul-12 14:02N 40°41' W 074°04'0 2.5
2018-Jul-12 14:00N 40°41' W 074°04'0 0.2
2018-Jul-12 13:30N 40°41' W 074°05'1 1.4
2018-Jul-12 13:01N 40°41' W 074°04'2 4.2
2018-Jul-12 12:31N 40°42' W 074°01'1 1.3
2018-Jul-12 12:00N 40°42' W 074°01'1 2.6
2018-Jul-12 11:31N 40°41' W 074°02'1 2.9
2018-Jul-12 11:00N 40°41' W 074°04'1 1.2
2018-Jul-12 10:30N 40°41' W 074°04'0 0.4
2018-Jul-12 10:00N 40°41' W 074°04'1 0.1
2018-Jul-11 23:38N 40°41' W 074°04'321.2
2018-Jul-11 23:30N 40°42' W 074°01'2 3.3
2018-Jul-11 23:01N 40°41' W 074°02'2 3.4
2018-Jul-11 22:30N 40°41' W 074°04'0 0.7
2018-Jul-11 22:00N 40°41' W 074°05'1 1.8
2018-Jul-11 21:30N 40°41' W 074°04'1 2.6
2018-Jul-11 21:01N 40°41' W 074°02'1 2.3
2018-Jul-11 20:30N 40°42' W 074°01'0 0.4
2018-Jul-11 20:00N 40°42' W 074°01'3 5.8
2018-Jul-11 19:30N 40°41' W 074°04'0 0.0
2018-Jul-11 15:37N 40°41' W 074°04'1 9.9
2018-Jul-11 15:30N 40°41' W 074°03'6 4.2
2018-Jul-11 14:04N 40°46' W 074°01'1 7.4
2018-Jul-11 13:58N 40°46' W 074°00'0 0.1
2018-Jul-11 13:30N 40°46' W 074°00'3 6.4
2018-Jul-11 13:00N 40°43' W 074°02'  

Dump ship's entire track history